KDBQ/DBQ METAR and TAF weather

Enter ICAO airport designator
Station Type Date Time Source
KDBQ METAR 2020/01/19 22:53 UTC NOAA

KDBQ 192253Z 29007KT 10SM OVC028 M12/M15 A3046 RMK AO2 SLP344 T11171150


Station Type Date Time Source
KDBQ Decoded METAR 2020/01/19 22:53 UTC NOAA

DUBUQUE REGIONAL AIRPORT, IA, United States (KDBQ) 42-24N 90-42W 326M
Jan 19, 2020 - 05:53 PM EST / 2020.01.19 2253 UTC
Wind: from the WNW (290 degrees) at 8 MPH (7 KT):0
Visibility: 10 mile(s):0
Sky conditions: overcast
Temperature: 10.9 F (-11.7 C)
Windchill: 0 F (-18 C):1
Dew Point: 5.0 F (-15.0 C)
Relative Humidity: 76%
Pressure (altimeter): 30.46 in. Hg (1031 hPa)
ob: KDBQ 192253Z 29007KT 10SM OVC028 M12/M15 A3046 RMK AO2 SLP344 T11171150
cycle: 23

Station Type Date Time Source
KDBQ TAF 2020/01/19 18:36 UTC NOAA

TAF KDBQ 191730Z 1918/2018 32013KT P6SM -SN SCT025
TEMPO 1918/1920 BKN025
FM200100 33007KT P6SM BKN025
FM201500 34004KT P6SM SCT030 BKN080

Example: see airport list